Time;durP1;ratioP1;P1;durP2;ratioP2;P2;SDS_P1;SDS_P2;PMS_P1;PMS_P2;Temp;Humidity;BMP_temperature;BMP_pressure;BME280_temperature;BME280_humidity;BME280_pressure;Samples;Min_cycle;Max_cycle;Signal;HPM_P1;HPM_P2
2023/07/06 00:00:51;;;;;;;12.25;4.45;;;14.50;99.90;;;;;;5072439;28;20184;-51
2023/07/06 00:03:17;;;;;;;8.10;3.80;;;14.50;99.90;;;;;;5072031;28;20249;-51
2023/07/06 00:05:46;;;;;;;7.68;4.20;;;14.50;99.90;;;;;;5072530;28;20251;-51
2023/07/06 00:08:13;;;;;;;14.27;3.83;;;14.50;99.90;;;;;;5071746;28;20197;-51
2023/07/06 00:10:39;;;;;;;5.38;3.67;;;14.40;99.90;;;;;;5071836;28;20218;-51
2023/07/06 00:13:06;;;;;;;9.50;4.38;;;14.50;99.90;;;;;;5072469;28;20166;-51
2023/07/06 00:15:35;;;;;;;4.18;3.25;;;14.60;99.90;;;;;;5072222;28;20177;-51
2023/07/06 00:18:04;;;;;;;5.50;3.88;;;14.60;99.90;;;;;;5072095;28;20228;-51
2023/07/06 00:20:35;;;;;;;7.53;3.45;;;14.50;99.90;;;;;;5071796;28;20683;-51
2023/07/06 00:23:01;;;;;;;7.72;3.88;;;14.50;99.90;;;;;;5072018;28;20216;-51
2023/07/06 00:25:27;;;;;;;6.20;4.43;;;14.50;99.90;;;;;;5071826;28;20563;-51
2023/07/06 00:27:58;;;;;;;5.88;3.67;;;14.50;99.90;;;;;;5071827;28;20177;-51
2023/07/06 00:30:40;;;;;;;9.25;3.95;;;14.50;99.90;;;;;;5071988;28;20169;-51
2023/07/06 00:33:07;;;;;;;6.00;3.70;;;14.60;99.90;;;;;;5072176;28;20253;-51
2023/07/06 00:35:33;;;;;;;12.15;3.58;;;14.60;99.90;;;;;;5072108;28;20174;-51
2023/07/06 00:37:59;;;;;;;8.27;3.80;;;14.50;99.90;;;;;;5071530;28;20162;-51
2023/07/06 00:40:31;;;;;;;6.95;3.88;;;14.60;99.90;;;;;;5071668;28;20180;-51
2023/07/06 00:42:56;;;;;;;8.27;3.85;;;14.60;99.90;;;;;;5071898;28;20169;-52
2023/07/06 00:45:22;;;;;;;7.93;3.80;;;14.60;99.90;;;;;;5071851;28;20174;-51
2023/07/06 00:47:55;;;;;;;9.15;3.80;;;14.50;99.90;;;;;;5071761;28;20166;-51
2023/07/06 00:50:24;;;;;;;6.70;4.40;;;14.50;99.90;;;;;;5071773;28;20176;-51
2023/07/06 00:52:54;;;;;;;8.20;4.20;;;14.50;99.90;;;;;;5071450;28;20177;-51
2023/07/06 00:55:25;;;;;;;8.88;4.53;;;14.40;99.90;;;;;;5071379;28;20559;-51
2023/07/06 00:57:57;;;;;;;11.90;4.00;;;14.40;99.90;;;;;;5071634;28;20169;-51
2023/07/06 01:00:23;;;;;;;7.47;3.58;;;14.50;99.90;;;;;;5072950;28;20264;-52
2023/07/06 01:02:52;;;;;;;4.55;3.63;;;14.50;99.90;;;;;;5075810;28;20524;-51
2023/07/06 01:05:19;;;;;;;10.65;3.33;;;14.50;99.90;;;;;;5075368;28;20626;-51
2023/07/06 01:07:47;;;;;;;7.07;3.28;;;14.40;99.90;;;;;;5075467;28;20219;-51
2023/07/06 01:10:13;;;;;;;6.68;3.20;;;14.50;99.90;;;;;;5075090;28;20693;-51
2023/07/06 01:12:38;;;;;;;6.00;2.78;;;14.40;99.90;;;;;;5075619;28;20170;-51
2023/07/06 01:15:06;;;;;;;7.15;3.58;;;14.40;99.90;;;;;;5075689;28;20232;-51
2023/07/06 01:17:57;;;;;;;7.85;3.42;;;14.30;99.90;;;;;;5075937;28;20252;-51
2023/07/06 01:20:38;;;;;;;6.60;3.10;;;14.30;99.90;;;;;;5075177;28;20268;-51
2023/07/06 01:23:27;;;;;;;12.27;3.13;;;14.30;99.90;;;;;;5075784;28;20257;-51
2023/07/06 01:26:03;;;;;;;8.80;3.00;;;14.20;99.90;;;;;;5075087;28;20162;-51
2023/07/06 01:29:16;;;;;;;6.25;3.58;;;14.20;99.90;;;;;;5075002;28;20166;-51
2023/07/06 01:31:49;;;;;;;6.07;3.22;;;14.10;99.90;;;;;;5030775;28;20230;-51
2023/07/06 01:34:45;;;;;;;6.60;3.05;;;14.10;99.90;;;;;;5074864;28;20308;-51
2023/07/06 01:37:20;;;;;;;7.78;3.03;;;14.10;99.90;;;;;;5074809;28;20195;-51
2023/07/06 01:39:45;;;;;;;8.20;3.03;;;14.10;99.90;;;;;;5074958;28;20247;-51
2023/07/06 01:42:14;;;;;;;8.30;3.55;;;14.10;99.90;;;;;;5074903;28;20201;-52
2023/07/06 01:44:42;;;;;;;8.27;3.47;;;14.10;99.90;;;;;;5074665;28;20162;-51
2023/07/06 01:47:09;;;;;;;6.22;3.13;;;14.10;99.90;;;;;;5074701;28;20162;-51
2023/07/06 01:49:36;;;;;;;5.65;3.00;;;14.10;99.90;;;;;;5075019;28;20563;-51
2023/07/06 01:52:18;;;;;;;10.75;3.58;;;14.10;99.90;;;;;;5074991;28;20162;-51
2023/07/06 01:55:09;;;;;;;11.50;3.50;;;14.00;99.90;;;;;;5074530;28;20168;-51
2023/07/06 01:57:46;;;;;;;13.20;3.38;;;14.10;99.90;;;;;;5075174;28;20177;-51
2023/07/06 02:00:14;;;;;;;11.80;3.42;;;14.10;99.90;;;;;;5074238;28;20775;-51
2023/07/06 02:02:44;;;;;;;9.18;3.33;;;14.00;99.90;;;;;;5074349;28;20166;-51
2023/07/06 02:05:10;;;;;;;8.48;3.65;;;14.00;99.90;;;;;;5074267;28;20660;-51
2023/07/06 02:07:40;;;;;;;15.80;3.33;;;14.10;99.90;;;;;;5074205;28;20648;-51
2023/07/06 02:10:06;;;;;;;8.02;3.53;;;14.10;99.90;;;;;;5074433;28;20304;-51
2023/07/06 02:12:32;;;;;;;9.18;3.72;;;14.10;99.90;;;;;;5074300;28;20200;-51
2023/07/06 02:14:58;;;;;;;9.05;3.35;;;14.10;99.90;;;;;;5074229;28;20166;-51
2023/07/06 02:17:23;;;;;;;6.00;2.65;;;14.00;99.90;;;;;;5074391;28;20658;-51
2023/07/06 02:19:50;;;;;;;8.88;3.40;;;14.00;99.90;;;;;;5073968;28;20213;-51
2023/07/06 02:22:17;;;;;;;9.07;4.00;;;14.00;99.90;;;;;;5074089;28;20208;-51
2023/07/06 02:24:43;;;;;;;5.53;3.40;;;14.00;99.90;;;;;;5074239;28;20174;-51
2023/07/06 02:27:10;;;;;;;8.60;4.00;;;14.00;99.90;;;;;;5074013;28;20266;-51
2023/07/06 02:29:36;;;;;;;12.23;4.63;;;13.90;99.90;;;;;;5074543;28;20181;-51
2023/07/06 02:32:02;;;;;;;14.18;4.90;;;13.90;99.90;;;;;;5074539;28;20170;-51
2023/07/06 02:34:28;;;;;;;8.98;4.30;;;13.80;99.90;;;;;;5073637;28;20578;-51
2023/07/06 02:36:55;;;;;;;6.88;3.85;;;13.90;99.90;;;;;;5073870;28;20196;-51
2023/07/06 02:39:24;;;;;;;6.05;3.90;;;13.90;99.90;;;;;;5073518;28;20208;-51
2023/07/06 02:41:55;;;;;;;7.72;3.72;;;13.90;99.90;;;;;;5073436;28;20173;-51
2023/07/06 02:44:21;;;;;;;8.27;4.28;;;13.90;99.90;;;;;;5073121;28;20625;-51
2023/07/06 02:46:47;;;;;;;7.78;3.75;;;13.90;99.90;;;;;;5073578;28;20178;-51
2023/07/06 02:49:13;;;;;;;11.18;4.22;;;14.00;99.90;;;;;;5073097;28;20668;-51
2023/07/06 02:51:40;;;;;;;17.23;4.18;;;13.90;99.90;;;;;;5072755;28;20170;-51
2023/07/06 02:54:06;;;;;;;9.15;4.00;;;13.90;99.90;;;;;;5072786;28;20569;-51
2023/07/06 02:56:32;;;;;;;9.52;3.55;;;13.90;99.90;;;;;;5072384;28;20231;-51
2023/07/06 02:58:58;;;;;;;8.85;3.95;;;13.90;99.90;;;;;;5073516;28;20213;-51
2023/07/06 03:01:23;;;;;;;10.70;4.15;;;13.90;99.90;;;;;;5073333;28;20216;-51
2023/07/06 03:03:51;;;;;;;14.07;4.20;;;13.90;99.90;;;;;;5073290;28;20626;-51
2023/07/06 03:06:18;;;;;;;9.25;3.88;;;13.90;99.90;;;;;;5055922;28;20174;-51
2023/07/06 03:08:44;;;;;;;11.63;3.40;;;13.80;99.90;;;;;;5073396;28;20174;-51
2023/07/06 03:11:10;;;;;;;7.65;3.92;;;13.80;99.90;;;;;;5072927;28;20641;-51
2023/07/06 03:13:36;;;;;;;9.75;3.97;;;13.90;99.90;;;;;;5073071;28;20169;-51
2023/07/06 03:16:04;;;;;;;10.93;3.70;;;13.90;99.90;;;;;;5073301;28;20235;-51
2023/07/06 03:18:30;;;;;;;17.60;4.55;;;13.90;99.90;;;;;;5073160;28;20226;-51
2023/07/06 03:20:56;;;;;;;10.18;4.43;;;13.90;99.90;;;;;;5072913;28;20169;-52
2023/07/06 03:23:23;;;;;;;7.82;3.78;;;13.80;99.90;;;;;;5072514;28;20634;-51
2023/07/06 03:25:51;;;;;;;10.10;3.80;;;13.80;99.90;;;;;;5073106;28;20178;-51
2023/07/06 03:28:17;;;;;;;7.25;3.90;;;13.90;99.90;;;;;;5073054;28;20166;-51
2023/07/06 03:30:43;;;;;;;7.75;3.50;;;13.80;99.90;;;;;;5073005;28;20174;-52
2023/07/06 03:33:09;;;;;;;9.00;3.25;;;13.80;99.90;;;;;;5072846;28;20630;-51
2023/07/06 03:35:36;;;;;;;6.20;2.75;;;13.70;99.90;;;;;;5073174;28;20193;-51
2023/07/06 03:38:02;;;;;;;11.75;3.00;;;13.70;99.90;;;;;;5073155;28;20535;-51
2023/07/06 03:40:29;;;;;;;9.82;2.70;;;13.60;99.90;;;;;;5076925;28;20169;-51
2023/07/06 03:42:56;;;;;;;7.45;2.80;;;13.60;99.90;;;;;;5092310;28;20655;-51
2023/07/06 03:45:22;;;;;;;5.95;2.85;;;13.60;99.90;;;;;;5092975;28;20177;-51
2023/07/06 03:47:49;;;;;;;7.00;2.97;;;13.50;99.90;;;;;;5074367;28;20625;-51
2023/07/06 03:50:18;;;;;;;7.38;2.70;;;13.60;99.90;;;;;;5092628;28;20170;-52
2023/07/06 03:52:44;;;;;;;6.50;2.58;;;13.60;99.90;;;;;;5092562;28;20205;-51
2023/07/06 03:55:15;;;;;;;7.43;2.83;;;13.60;99.90;;;;;;5092673;28;20274;-51
2023/07/06 03:57:43;;;;;;;10.32;2.72;;;13.60;99.90;;;;;;5092448;28;20162;-51
2023/07/06 04:00:18;;;;;;;10.90;3.78;;;13.60;99.90;;;;;;5092535;28;20209;-51
2023/07/06 04:02:43;;;;;;;5.00;2.45;;;13.60;99.90;;;;;;5092601;28;20183;-51
2023/07/06 04:05:09;;;;;;;17.33;3.50;;;13.50;99.90;;;;;;5092382;28;20169;-51
2023/07/06 04:07:35;;;;;;;10.18;4.22;;;13.50;99.90;;;;;;5092584;28;20240;-51
2023/07/06 04:10:01;;;;;;;9.45;3.35;;;13.50;99.90;;;;;;5092120;28;20387;-51
2023/07/06 04:12:26;;;;;;;13.68;3.50;;;13.50;99.90;;;;;;5092148;28;20169;-51
2023/07/06 04:14:54;;;;;;;6.25;2.88;;;13.60;99.90;;;;;;5092108;28;20169;-52
2023/07/06 04:17:20;;;;;;;5.45;2.65;;;13.60;99.90;;;;;;5092244;28;20192;-51
2023/07/06 04:19:46;;;;;;;9.60;3.33;;;13.70;99.90;;;;;;5091964;28;20256;-51
2023/07/06 04:22:12;;;;;;;10.88;3.30;;;13.70;99.90;;;;;;5091975;28;20172;-51
2023/07/06 04:24:37;;;;;;;7.57;3.17;;;13.80;99.90;;;;;;5074002;28;20175;-51
2023/07/06 04:27:03;;;;;;;8.60;2.65;;;13.90;99.90;;;;;;5092285;28;20183;-51
2023/07/06 04:29:29;;;;;;;8.50;2.88;;;13.80;99.90;;;;;;5091931;28;20177;-51
2023/07/06 04:31:55;;;;;;;10.23;2.85;;;13.90;99.90;;;;;;5091682;28;20169;-51
2023/07/06 04:34:22;;;;;;;8.48;2.63;;;13.90;99.90;;;;;;5091890;28;20169;-51
2023/07/06 04:36:47;;;;;;;7.50;2.90;;;13.90;99.90;;;;;;5091995;28;20177;-51
2023/07/06 04:39:13;;;;;;;8.68;3.15;;;14.10;99.90;;;;;;5091619;28;20291;-51
2023/07/06 04:41:39;;;;;;;5.32;2.70;;;14.10;99.90;;;;;;5091635;28;20645;-51
2023/07/06 04:44:05;;;;;;;12.63;2.80;;;14.20;99.90;;;;;;5091989;28;20628;-51
2023/07/06 04:46:31;;;;;;;13.48;3.17;;;14.40;99.90;;;;;;5092248;28;20206;-51
2023/07/06 04:48:57;;;;;;;4.75;2.40;;;14.50;99.90;;;;;;5091702;28;20583;-52
2023/07/06 04:51:23;;;;;;;8.50;2.60;;;14.60;99.90;;;;;;5091866;28;20173;-51
2023/07/06 04:53:49;;;;;;;14.30;2.50;;;14.70;99.90;;;;;;5091615;28;20169;-51
2023/07/06 04:56:15;;;;;;;11.23;2.60;;;14.80;99.90;;;;;;5091617;28;20161;-51
2023/07/06 04:58:42;;;;;;;7.35;2.90;;;14.80;99.90;;;;;;5091420;28;20259;-51
2023/07/06 05:01:08;;;;;;;9.60;2.60;;;14.80;99.90;;;;;;5091833;28;20165;-51
2023/07/06 05:03:35;;;;;;;7.93;2.85;;;14.90;99.90;;;;;;5091895;28;20621;-51
2023/07/06 05:06:07;;;;;;;8.77;2.60;;;15.00;99.90;;;;;;5092126;28;20205;-52
2023/07/06 05:08:33;;;;;;;6.25;2.38;;;15.10;99.90;;;;;;5091841;28;20708;-51
2023/07/06 05:11:03;;;;;;;10.48;2.42;;;15.20;99.90;;;;;;5091267;28;20301;-51
2023/07/06 05:13:29;;;;;;;10.65;2.75;;;15.10;99.90;;;;;;5091489;28;20556;-51
2023/07/06 05:15:55;;;;;;;9.93;2.90;;;15.30;99.90;;;;;;5091649;28;20243;-51
2023/07/06 05:18:21;;;;;;;10.15;2.63;;;15.50;99.90;;;;;;5091347;28;20196;-51
2023/07/06 05:20:49;;;;;;;9.02;2.85;;;15.50;99.90;;;;;;5091366;28;20648;-51
2023/07/06 05:23:18;;;;;;;6.65;2.45;;;15.60;99.90;;;;;;5091564;28;20173;-51
2023/07/06 05:25:44;;;;;;;11.13;2.75;;;15.70;99.90;;;;;;5091384;28;20168;-50
2023/07/06 05:28:13;;;;;;;8.63;2.53;;;15.80;99.90;;;;;;5091614;28;20169;-51
2023/07/06 05:30:39;;;;;;;9.02;2.58;;;15.80;99.90;;;;;;5091263;28;20689;-51
2023/07/06 05:33:06;;;;;;;13.20;2.90;;;15.70;99.90;;;;;;5091938;28;20548;-51
2023/07/06 05:35:32;;;;;;;7.72;2.85;;;15.90;99.90;;;;;;5091863;28;20175;-51
2023/07/06 05:37:59;;;;;;;7.93;3.00;;;16.10;99.90;;;;;;5091459;28;20173;-51
2023/07/06 05:40:25;;;;;;;14.05;3.08;;;16.00;99.90;;;;;;5073149;28;20165;-51
2023/07/06 05:42:52;;;;;;;11.38;3.17;;;15.90;99.90;;;;;;5091132;28;20161;-51
2023/07/06 05:45:17;;;;;;;12.10;3.08;;;15.80;99.90;;;;;;5091104;28;20165;-51
2023/07/06 05:47:43;;;;;;;9.90;2.97;;;15.80;99.90;;;;;;5094689;28;20180;-51
2023/07/06 05:50:09;;;;;;;7.90;3.13;;;16.00;99.90;;;;;;5094914;28;20166;-51
2023/07/06 05:52:35;;;;;;;5.63;2.90;;;16.10;99.90;;;;;;5095270;28;20248;-51
2023/07/06 05:55:00;;;;;;;12.00;3.03;;;16.10;99.90;;;;;;5095234;28;20522;-51
2023/07/06 05:57:26;;;;;;;9.10;2.70;;;16.20;99.90;;;;;;5094664;28;20248;-50
2023/07/06 05:59:53;;;;;;;9.98;3.30;;;16.30;99.90;;;;;;5094878;28;20248;-50
2023/07/06 06:02:20;;;;;;;10.38;2.90;;;16.50;99.90;;;;;;5094820;28;20165;-51
2023/07/06 06:04:47;;;;;;;5.57;2.10;;;16.50;99.90;;;;;;5094557;28;20177;-51
2023/07/06 06:07:14;;;;;;;13.68;2.40;;;16.40;99.90;;;;;;5094773;28;20176;-50
2023/07/06 06:09:39;;;;;;;6.72;2.40;;;16.20;99.90;;;;;;5094639;28;20562;-51
2023/07/06 06:12:05;;;;;;;11.07;2.85;;;16.20;99.90;;;;;;5094626;28;20162;-51
2023/07/06 06:14:32;;;;;;;7.13;2.10;;;16.30;99.90;;;;;;5094803;28;20169;-51
2023/07/06 06:16:58;;;;;;;8.93;2.08;;;16.30;99.90;;;;;;5094548;28;20173;-51
2023/07/06 06:19:27;;;;;;;7.32;2.42;;;16.30;99.90;;;;;;5094246;28;20559;-51
2023/07/06 06:21:53;;;;;;;6.45;2.00;;;15.10;99.90;;;;;;5094300;28;20161;-51
2023/07/06 06:24:22;;;;;;;8.88;2.28;;;16.40;99.90;;;;;;5094170;28;20176;-51
2023/07/06 06:26:49;;;;;;;6.15;2.03;;;16.30;99.90;;;;;;5094187;28;20172;-51
2023/07/06 06:29:14;;;;;;;5.28;1.98;;;16.30;99.90;;;;;;5094202;28;20738;-51
2023/07/06 06:31:42;;;;;;;6.18;2.30;;;16.40;99.90;;;;;;5094059;28;20264;-51
2023/07/06 06:34:08;;;;;;;4.72;2.17;;;16.40;99.90;;;;;;5094272;28;20173;-51
2023/07/06 06:36:34;;;;;;;8.55;2.25;;;16.50;99.90;;;;;;5094402;28;20613;-51
2023/07/06 06:39:00;;;;;;;4.50;2.00;;;16.70;99.90;;;;;;5094219;28;20254;-51
2023/07/06 06:41:25;;;;;;;7.80;2.20;;;16.80;99.90;;;;;;5094191;28;20222;-51
2023/07/06 06:43:51;;;;;;;6.35;2.38;;;16.90;99.90;;;;;;5093842;28;20197;-51
2023/07/06 06:46:16;;;;;;;5.10;2.47;;;16.70;99.90;;;;;;5093846;28;20181;-51
2023/07/06 06:48:42;;;;;;;3.50;1.75;;;16.80;99.90;;;;;;5093812;28;20517;-51
2023/07/06 06:51:10;;;;;;;10.43;3.08;;;16.70;99.90;;;;;;5093713;28;20197;-51
2023/07/06 06:53:39;;;;;;;7.25;2.45;;;16.60;99.90;;;;;;5093582;28;20652;-51
2023/07/06 06:56:09;;;;;;;7.22;2.38;;;16.70;99.90;;;;;;5093792;28;20189;-51
2023/07/06 06:58:35;;;;;;;6.57;2.40;;;16.60;99.90;;;;;;5092452;28;20238;-51
2023/07/06 07:01:04;;;;;;;8.63;2.58;;;16.80;99.90;;;;;;5094195;28;20169;-51
2023/07/06 07:03:29;;;;;;;5.97;2.20;;;16.70;99.90;;;;;;5093475;28;20165;-51
2023/07/06 07:06:04;;;;;;;6.65;2.15;;;17.00;99.90;;;;;;5093311;28;20617;-52
2023/07/06 07:08:29;;;;;;;6.60;2.25;;;17.10;99.90;;;;;;5093328;28;20173;-52
2023/07/06 07:10:57;;;;;;;9.38;3.05;;;17.10;99.90;;;;;;5093221;28;20212;-52
2023/07/06 07:13:24;;;;;;;5.60;2.38;;;17.20;99.90;;;;;;5093243;28;20173;-53
2023/07/06 07:15:50;;;;;;;7.53;2.47;;;17.50;99.90;;;;;;5093249;28;20256;-51
2023/07/06 07:18:15;;;;;;;7.07;1.90;;;17.40;99.90;;;;;;5093077;28;20203;-52
2023/07/06 07:20:43;;;;;;;7.88;2.58;;;17.50;99.90;;;;;;5093340;28;20225;-52
2023/07/06 07:23:10;;;;;;;7.53;2.63;;;17.70;99.90;;;;;;5093297;28;20175;-51
2023/07/06 07:25:38;;;;;;;7.25;2.28;;;17.90;99.90;;;;;;5093023;28;20207;-52
2023/07/06 07:28:05;;;;;;;10.45;3.15;;;17.80;99.90;;;;;;5093437;28;20188;-49
2023/07/06 07:30:31;;;;;;;6.57;2.83;;;17.80;99.90;;;;;;5093671;28;20174;-52
2023/07/06 07:32:57;;;;;;;8.80;3.03;;;17.90;99.90;;;;;;5092952;28;20236;-51
2023/07/06 07:35:23;;;;;;;12.70;3.30;;;18.00;99.90;;;;;;5093153;28;20252;-52
2023/07/06 07:37:50;;;;;;;10.25;2.50;;;18.00;99.90;;;;;;5092887;28;20193;-52
2023/07/06 07:40:18;;;;;;;8.65;2.28;;;18.00;99.90;;;;;;5092741;28;20217;-49
2023/07/06 07:42:46;;;;;;;8.63;2.33;;;17.90;99.90;;;;;;5074683;28;20173;-49
2023/07/06 07:45:13;;;;;;;7.38;2.38;;;18.10;99.90;;;;;;5092612;28;20176;-49
2023/07/06 07:47:39;;;;;;;7.28;2.25;;;18.30;99.90;;;;;;5092672;28;20190;-52
2023/07/06 07:50:06;;;;;;;5.65;2.17;;;18.10;99.90;;;;;;5092773;28;20197;-51
2023/07/06 07:52:32;;;;;;;6.90;2.70;;;18.00;99.90;;;;;;5092841;28;20258;-52
2023/07/06 07:54:57;;;;;;;7.25;2.15;;;18.30;99.90;;;;;;5092489;28;20639;-49
2023/07/06 07:57:23;;;;;;;4.93;2.10;;;18.30;99.90;;;;;;5092499;28;20169;-50
2023/07/06 07:59:48;;;;;;;6.93;2.28;;;18.40;99.90;;;;;;5092409;28;20240;-52
2023/07/06 08:02:14;;;;;;;6.28;2.40;;;18.30;99.90;;;;;;5092704;28;20180;-52
2023/07/06 08:04:39;;;;;;;4.07;2.00;;;18.50;99.90;;;;;;5092734;28;20169;-52
2023/07/06 08:07:05;;;;;;;7.53;2.20;;;18.40;99.90;;;;;;5092365;28;20174;-49
2023/07/06 08:09:31;;;;;;;6.35;2.60;;;18.60;99.90;;;;;;5092397;28;20216;-50
2023/07/06 08:11:57;;;;;;;7.75;2.15;;;18.60;99.90;;;;;;5092217;28;20173;-50
2023/07/06 08:14:43;;;;;;;7.78;2.28;;;18.70;99.90;;;;;;5092110;28;20165;-50
2023/07/06 08:17:10;;;;;;;5.50;2.30;;;18.90;99.90;;;;;;5092098;28;20686;-50
2023/07/06 08:19:36;;;;;;;7.03;2.20;;;19.10;99.90;;;;;;5091884;28;20295;-50
2023/07/06 08:22:03;;;;;;;5.82;2.20;;;19.20;99.90;;;;;;5092348;28;20196;-50
2023/07/06 08:24:29;;;;;;;6.00;2.38;;;19.20;99.90;;;;;;5092255;28;20230;-50
2023/07/06 08:26:55;;;;;;;5.25;2.33;;;19.10;99.90;;;;;;5091906;28;20169;-50
2023/07/06 08:29:22;;;;;;;4.78;2.05;;;19.30;99.90;;;;;;5091922;28;20170;-49
2023/07/06 08:31:49;;;;;;;8.88;2.65;;;19.30;99.90;;;;;;5092147;28;20621;-50
2023/07/06 08:34:16;;;;;;;3.40;2.08;;;19.40;99.90;;;;;;5091859;28;20540;-50
2023/07/06 08:36:43;;;;;;;6.93;2.50;;;19.60;99.90;;;;;;5074013;28;20182;-49
2023/07/06 08:39:09;;;;;;;6.70;2.45;;;19.60;99.90;;;;;;5073726;28;20331;-50
2023/07/06 08:41:42;;;;;;;6.80;2.40;;;19.70;99.90;;;;;;5091824;28;20248;-50
2023/07/06 08:44:11;;;;;;;4.38;2.08;;;20.00;99.90;;;;;;5091910;28;20180;-50
2023/07/06 08:46:41;;;;;;;5.68;2.30;;;20.20;99.90;;;;;;5091810;28;20161;-52
2023/07/06 08:49:28;;;;;;;5.57;2.10;;;20.20;99.90;;;;;;5091769;28;20173;-52
2023/07/06 08:51:55;;;;;;;4.82;2.30;;;20.30;99.90;;;;;;5091600;28;20547;-52
2023/07/06 08:54:24;;;;;;;4.93;2.20;;;20.10;99.90;;;;;;5091706;28;20207;-50
2023/07/06 08:56:50;;;;;;;8.23;2.58;;;20.20;99.90;;;;;;5091606;28;20161;-51
2023/07/06 08:59:39;;;;;;;3.83;1.83;;;20.50;99.90;;;;;;5091502;28;20247;-51
2023/07/06 09:02:20;;;;;;;5.43;1.80;;;20.60;99.90;;;;;;5091600;28;20158;-50
2023/07/06 09:04:48;;;;;;;4.40;1.63;;;20.60;99.90;;;;;;5091730;28;20254;-52
2023/07/06 09:07:34;;;;;;;5.85;1.63;;;20.80;99.90;;;;;;5091561;28;20165;-51
2023/07/06 09:10:01;;;;;;;5.72;1.70;;;20.40;99.90;;;;;;5073849;28;20243;-51
2023/07/06 09:12:36;;;;;;;4.05;1.88;;;20.30;99.90;;;;;;5091413;28;20170;-51
2023/07/06 09:15:03;;;;;;;3.53;1.85;;;20.40;99.90;;;;;;5092089;28;20176;-51
2023/07/06 09:17:29;;;;;;;5.18;1.70;;;20.50;99.90;;;;;;5091942;28;20184;-51
2023/07/06 09:19:56;;;;;;;4.22;1.50;;;20.80;99.90;;;;;;5091226;28;20281;-51
2023/07/06 09:22:23;;;;;;;3.03;1.58;;;20.90;99.90;;;;;;5094490;28;20203;-51
2023/07/06 09:24:49;;;;;;;2.60;1.33;;;20.90;99.90;;;;;;5095723;28;20173;-50
2023/07/06 09:27:26;;;;;;;1.92;1.50;;;20.90;99.90;;;;;;5095592;28;20173;-51
2023/07/06 09:29:56;;;;;;;2.45;1.35;;;20.90;99.90;;;;;;5095602;28;20195;-51
2023/07/06 09:32:22;;;;;;;2.47;1.50;;;20.60;99.90;;;;;;5095341;28;20168;-51
2023/07/06 09:34:59;;;;;;;3.15;1.50;;;20.80;99.90;;;;;;5095404;28;20218;-51
2023/07/06 09:37:26;;;;;;;4.78;1.52;;;20.80;99.90;;;;;;5095267;28;20536;-51
2023/07/06 09:40:03;;;;;;;2.53;1.40;;;20.90;99.90;;;;;;5076976;28;20205;-51
2023/07/06 09:42:29;;;;;;;2.47;1.20;;;21.10;99.90;;;;;;5095470;28;20249;-51
2023/07/06 09:44:55;;;;;;;1.30;1.20;;;20.90;99.90;;;;;;5095000;28;20620;-51
2023/07/06 09:47:23;;;;;;;2.38;1.60;;;20.90;99.90;;;;;;5095254;28;20185;-51
2023/07/06 09:50:18;;;;;;;2.78;1.45;;;21.30;99.90;;;;;;5095166;28;20173;-50
2023/07/06 09:52:44;;;;;;;1.98;1.40;;;21.30;99.90;;;;;;5095067;28;20196;-50
2023/07/06 09:55:29;;;;;;;2.90;2.08;;;21.30;99.90;;;;;;5094736;28;20166;-50
2023/07/06 09:57:56;;;;;;;2.65;1.50;;;21.60;99.90;;;;;;5061032;28;20165;-50
2023/07/06 10:00:28;;;;;;;2.88;1.35;;;21.50;99.90;;;;;;5094600;28;20201;-50
2023/07/06 10:03:00;;;;;;;7.18;1.50;;;21.60;99.90;;;;;;5094668;28;20271;-50
2023/07/06 10:05:44;;;;;;;3.88;1.52;;;21.70;99.90;;;;;;5094632;28;20168;-50
2023/07/06 10:08:20;;;;;;;2.13;1.63;;;21.70;99.90;;;;;;5094802;28;20290;-50
2023/07/06 10:11:12;;;;;;;3.65;1.42;;;21.80;99.90;;;;;;5094360;28;20316;-50
2023/07/06 10:13:46;;;;;;;1.70;1.30;;;21.90;99.90;;;;;;5076722;28;20186;-51
2023/07/06 10:16:24;;;;;;;2.25;1.38;;;21.90;99.90;;;;;;5094656;28;20173;-50
2023/07/06 10:19:01;;;;;;;1.33;1.02;;;22.00;99.90;;;;;;5094363;28;20193;-51
2023/07/06 10:21:32;;;;;;;4.05;1.50;;;22.40;99.90;;;;;;5094280;28;20532;-50
2023/07/06 10:24:05;;;;;;;1.60;1.27;;;22.30;99.90;;;;;;5094283;28;20570;-51
2023/07/06 10:26:34;;;;;;;1.92;1.20;;;22.30;99.90;;;;;;5094685;28;20165;-50
2023/07/06 10:29:16;;;;;;;2.20;1.60;;;22.20;99.90;;;;;;5094532;28;20153;-50
2023/07/06 10:31:54;;;;;;;2.40;1.50;;;22.40;99.90;;;;;;5094199;28;20177;-50
2023/07/06 10:34:38;;;;;;;3.60;1.70;;;23.00;99.90;;;;;;5075894;28;20236;-50
2023/07/06 10:37:05;;;;;;;2.58;1.38;;;22.80;99.90;;;;;;5094252;28;20162;-51
2023/07/06 10:39:31;;;;;;;3.22;1.35;;;22.60;99.90;;;;;;5094487;28;20258;-50
2023/07/06 10:42:09;;;;;;;1.77;1.17;;;22.80;99.90;;;;;;5093888;28;20157;-50
2023/07/06 10:44:43;;;;;;;5.20;1.48;;;22.70;99.90;;;;;;5093822;28;20219;-50
2023/07/06 10:47:28;;;;;;;2.67;1.30;;;22.60;99.90;;;;;;5093996;28;20518;-50
2023/07/06 10:50:08;;;;;;;2.97;1.40;;;23.00;99.90;;;;;;5075584;28;20165;-50
2023/07/06 10:52:42;;;;;;;2.17;1.20;;;23.10;99.90;;;;;;5093659;28;20169;-51
2023/07/06 10:55:18;;;;;;;1.80;1.30;;;22.90;99.90;;;;;;5093667;28;20172;-51
2023/07/06 10:57:53;;;;;;;2.00;1.30;;;23.30;99.90;;;;;;5093620;28;20648;-50
2023/07/06 11:00:28;;;;;;;2.55;1.90;;;23.20;99.90;;;;;;5093482;28;20538;-50
2023/07/06 11:02:56;;;;;;;1.45;1.15;;;23.30;98.80;;;;;;5093569;28;20161;-50
2023/07/06 11:05:28;;;;;;;1.55;1.45;;;23.30;99.90;;;;;;5093526;28;20157;-51
2023/07/06 11:08:14;;;;;;;10.73;1.90;;;23.50;99.90;;;;;;5093657;28;20196;-51
2023/07/06 11:10:44;;;;;;;2.92;1.50;;;23.30;99.80;;;;;;5092774;28;20216;-50
2023/07/06 11:13:12;;;;;;;3.10;1.70;;;23.40;98.40;;;;;;5075183;28;20165;-50
2023/07/06 11:15:43;;;;;;;3.10;2.17;;;23.70;98.40;;;;;;5093548;28;20180;-50
2023/07/06 11:18:23;;;;;;;3.35;1.52;;;23.90;97.70;;;;;;5093153;28;20628;-50
2023/07/06 11:20:54;;;;;;;2.15;1.45;;;23.70;98.70;;;;;;5093170;28;20239;-50
2023/07/06 11:23:35;;;;;;;2.25;1.40;;;23.70;97.60;;;;;;5093128;28;20168;-51
2023/07/06 11:26:03;;;;;;;6.47;1.65;;;24.20;98.20;;;;;;5093410;28;20628;-51
2023/07/06 11:28:29;;;;;;;1.70;1.45;;;23.90;97.00;;;;;;5093663;28;20168;-51
2023/07/06 11:31:12;;;;;;;3.53;1.58;;;23.80;95.80;;;;;;5093245;28;20173;-51
2023/07/06 11:33:48;;;;;;;4.38;1.70;;;24.10;95.90;;;;;;5093203;28;20161;-51
2023/07/06 11:36:32;;;;;;;5.88;1.50;;;24.50;95.70;;;;;;5092885;28;20217;-51
2023/07/06 11:39:18;;;;;;;1.77;1.45;;;24.90;95.10;;;;;;5093107;28;20196;-51
2023/07/06 11:41:53;;;;;;;2.55;1.50;;;25.10;94.10;;;;;;5092849;28;20165;-51
2023/07/06 11:44:24;;;;;;;2.20;1.58;;;24.40;93.80;;;;;;5092126;28;20632;-50
2023/07/06 11:47:24;;;;;;;2.65;1.58;;;24.00;93.70;;;;;;5092704;28;20212;-51
2023/07/06 11:49:57;;;;;;;1.67;1.40;;;24.00;92.90;;;;;;5092757;28;20161;-51
2023/07/06 11:52:31;;;;;;;1.55;1.30;;;23.90;93.20;;;;;;5075377;28;20160;-51
2023/07/06 11:55:14;;;;;;;1.83;1.42;;;24.10;92.90;;;;;;5092534;28;20175;-52
2023/07/06 11:57:54;;;;;;;3.13;1.40;;;24.20;95.00;;;;;;5092437;28;20640;-51
2023/07/06 12:03:19;;;;;;;1.50;1.35;;;24.40;93.50;;;;;;5092644;28;20157;-51
2023/07/06 12:05:51;;;;;;;2.00;1.58;;;24.00;93.90;;;;;;5089201;28;20169;-51
2023/07/06 12:08:29;;;;;;;2.78;1.70;;;23.90;95.90;;;;;;5092461;28;20176;-50
2023/07/06 12:11:09;;;;;;;2.97;1.55;;;23.80;95.10;;;;;;5092012;28;20265;-51
2023/07/06 12:13:41;;;;;;;2.03;1.70;;;23.80;95.10;;;;;;5092233;28;20187;-51
2023/07/06 12:16:09;;;;;;;1.40;1.13;;;24.20;95.50;;;;;;5092396;28;20256;-50
2023/07/06 12:18:36;;;;;;;1.70;1.45;;;24.30;92.90;;;;;;5092011;28;20191;-51
2023/07/06 12:21:05;;;;;;;2.05;1.70;;;24.50;92.90;;;;;;5092565;28;20177;-51
2023/07/06 12:23:31;;;;;;;5.43;1.98;;;24.50;93.70;;;;;;5092724;28;20173;-50
2023/07/06 12:25:57;;;;;;;3.45;1.40;;;24.80;93.70;;;;;;5092004;28;20165;-51
2023/07/06 12:28:29;;;;;;;1.90;1.30;;;24.80;93.30;;;;;;5073908;28;20222;-51
2023/07/06 12:30:58;;;;;;;2.45;1.45;;;24.40;91.40;;;;;;5091768;28;20582;-51
2023/07/06 12:33:24;;;;;;;3.75;1.80;;;24.40;93.40;;;;;;5091929;28;20169;-51
2023/07/06 12:35:53;;;;;;;2.58;1.42;;;24.10;92.40;;;;;;5092001;28;20178;-51
2023/07/06 12:38:20;;;;;;;2.80;1.50;;;24.80;92.70;;;;;;5091778;28;20167;-50
2023/07/06 12:40:49;;;;;;;2.50;1.50;;;25.00;94.30;;;;;;5091778;28;20177;-51
2023/07/06 12:43:27;;;;;;;3.63;1.55;;;24.80;93.80;;;;;;5092027;28;20172;-51
2023/07/06 12:45:54;;;;;;;5.15;2.08;;;25.00;93.50;;;;;;5091677;28;20171;-50
2023/07/06 12:48:23;;;;;;;3.25;1.73;;;24.90;93.10;;;;;;5091856;28;20236;-51
2023/07/06 12:50:54;;;;;;;2.28;1.58;;;25.10;94.00;;;;;;5073538;28;20229;-50
2023/07/06 12:53:29;;;;;;;3.55;1.92;;;25.00;93.20;;;;;;5091881;28;20172;-50
2023/07/06 12:56:06;;;;;;;2.75;1.52;;;25.10;94.30;;;;;;5090964;28;20172;-50
2023/07/06 12:58:34;;;;;;;1.77;1.58;;;25.30;93.80;;;;;;5092168;28;20219;-50
2023/07/06 13:01:12;;;;;;;3.75;1.52;;;25.50;94.20;;;;;;5091906;28;20636;-50